Terminal Aerodrome Forecast
Issued by NWS Amarillo, TX

Home | Current Version | Previous Version | Text Only | Print | Product List | Glossary On
Versions: 1 2 3 4 5 6 7 8 9 10 11 12 13 14 15
331
FTUS44 KAMA 211240 AAA
TAFGUY
TAF AMD
KGUY 211240Z 2113/2212 03011KT 6SM BR OVC003
      TEMPO 2113/2116 2SM -RA OVC002
     FM211700 01014KT P6SM OVC008
     FM211900 02010KT P6SM OVC015
     FM212100 02010KT P6SM OVC025
     FM220500 35006KT P6SM BKN020=

USA.gov is the U.S. government's official web portal to all federal, state and local government web resources and services.